Mayport Ns (Adm David L. Mcdonald Field) Airport
KNRB : now visible

Airfield :











YOU CAN JOIN US ON...

 
LOGIN :

Register | Disclaimer

   EN    FR    IT 

 









Legend :    VFR   Marginal VFR   IFR   Intensive IFR   Very Intensive IFR
Visi :
Ceiling :
>= 8 km
>= 3000ft
5 to 8 km
1000 to 3000 ft
1500m to 5 km
500 to 1000 ft
800 to 1500m
200 to 500 ft
< 800m
< 200 ft
Symbols :   Thunderstorms  Fog  Heavy snow  Heavy precipitations  Wind > 20 kt






- Airport Elevation : 15 ft


KNRB - Mayport Ns (Adm David L. Mcdonald Field)

CURRENT METAR :
  • 100652Z AUTO 27007KT 10SM CLR 23/20 A2973 RMK AO2 SLP066 T02330200

EXPIRED METARs :
  • 100552Z AUTO 24007KT 10SM CLR 23/20 A2974 RMK AO2 SLP071 60000 T02330200 10294 20233 58004
  • 100452Z AUTO 25009KT 10SM CLR 24/20 A2976 RMK AO2 SLP077 T02440200 403220200

TAF TAF KNRB
Valid from the 10 at 07:00 until the 11 at 07:00 UTC


1007/1107 27007KT 9999 SCT040 SCT250 QNH2968INS
FM100900 25012G18KT 9999 SCT030 BKN080 OVC200 QNH2972INS
BECMG 1016/1018 34007KT 9999 VCSH BKN025 OVC060 520005 QNH2979INS
TEMPO 1019/1021 6000 -SHRA BKN020 OVC060
BECMG 1101/1103 VRB05KT 9999 NSW SCT020 SCT080 QNH2985INS AUTOMATED SENSOR METWATCH 1007 TIL 1009 T22/1007Z T14/1106Z FN00210



MET'MAP, your aeronautical weather chart ! - Copyright ORBIFLY December 2007 - Disclaimer

ORBIFLY MET'MAP TEAM :

Programming & Development : Alexandra Zaïnal
Concept & original design : Baudouin d'Aumeries
Assistance for programming : Marc-Olivier Méhu
Technical & hardware support : Manuel Goepfert

Contact : metmap@orbifly.com




SOURCES & CREDITS :

   NOAA       Earth
Advisory